Time;durP1;ratioP1;P1;durP2;ratioP2;P2;SDS_P1;SDS_P2;PMS_P1;PMS_P2;Temp;Humidity;BMP_temperature;BMP_pressure;BME280_temperature;BME280_humidity;BME280_pressure;Samples;Min_cycle;Max_cycle;Signal;HPM_P1;HPM_P2
2022/04/05 00:02:11;;;;;;;8.60;6.73;;;8.40;99.90;;;;;;5027432;28;20234;-75
2022/04/05 00:04:36;;;;;;;7.53;6.73;;;8.40;99.90;;;;;;5010209;28;20213;-75
2022/04/05 00:07:02;;;;;;;12.80;6.83;;;8.20;99.90;;;;;;5028665;28;20205;-75
2022/04/05 00:09:27;;;;;;;9.10;6.97;;;8.10;99.90;;;;;;5029521;28;20522;-75
2022/04/05 00:11:53;;;;;;;8.17;6.27;;;8.10;99.90;;;;;;5027669;28;20170;-76
2022/04/05 00:14:18;;;;;;;8.63;6.40;;;8.10;99.90;;;;;;5028883;28;20209;-76
2022/04/05 00:16:44;;;;;;;9.37;7.20;;;8.00;99.90;;;;;;5024289;28;20389;-76
2022/04/05 00:19:10;;;;;;;8.90;6.37;;;8.10;99.90;;;;;;5015291;28;20585;-76
2022/04/05 00:21:35;;;;;;;7.80;6.30;;;8.20;99.90;;;;;;5033040;28;20216;-74
2022/04/05 00:24:01;;;;;;;7.40;5.80;;;8.20;99.90;;;;;;5047974;28;20204;-76
2022/04/05 00:26:26;;;;;;;11.10;6.50;;;8.00;99.90;;;;;;5047380;28;20492;-76
2022/04/05 00:28:52;;;;;;;9.37;6.93;;;7.70;99.90;;;;;;5048352;28;20169;-76
2022/04/05 00:31:17;;;;;;;9.13;6.60;;;7.50;99.90;;;;;;5047003;28;20172;-76
2022/04/05 00:33:43;;;;;;;9.27;6.63;;;7.60;99.90;;;;;;5047467;28;20177;-75
2022/04/05 00:36:08;;;;;;;8.67;7.03;;;7.70;99.90;;;;;;5048251;28;20181;-76
2022/04/05 00:38:34;;;;;;;10.77;6.83;;;7.70;99.90;;;;;;5047253;28;20165;-75
2022/04/05 00:40:59;;;;;;;10.57;6.53;;;7.50;99.90;;;;;;5047077;28;20238;-75
2022/04/05 00:43:25;;;;;;;9.37;7.33;;;7.40;99.90;;;;;;5030324;28;20191;-76
2022/04/05 00:45:51;;;;;;;9.13;6.70;;;7.30;99.90;;;;;;5027787;28;20212;-76
2022/04/05 00:48:45;;;;;;;9.97;7.37;;;7.20;99.90;;;;;;5028468;28;20174;-76
2022/04/05 00:51:11;;;;;;;9.10;6.67;;;7.10;99.90;;;;;;5027766;28;20197;-76
2022/04/05 00:53:37;;;;;;;10.53;7.73;;;7.00;99.90;;;;;;5009925;28;20997;-76
2022/04/05 00:56:05;;;;;;;10.30;7.40;;;7.00;99.90;;;;;;5011775;28;20641;-76
2022/04/05 00:58:32;;;;;;;11.90;7.33;;;6.90;99.90;;;;;;5027603;28;20427;-76
2022/04/05 01:00:58;;;;;;;8.17;7.20;;;6.70;99.90;;;;;;5027269;28;20420;-76
2022/04/05 01:03:25;;;;;;;8.33;5.57;;;6.70;99.90;;;;;;5027784;28;20415;-76
2022/04/05 01:05:52;;;;;;;9.27;6.90;;;6.90;99.90;;;;;;5027529;28;20453;-76
2022/04/05 01:08:19;;;;;;;10.63;7.40;;;6.90;99.90;;;;;;5027697;28;20471;-76
2022/04/05 01:10:46;;;;;;;9.60;7.20;;;6.80;99.90;;;;;;5027162;28;20429;-76
2022/04/05 01:13:11;;;;;;;11.30;8.10;;;6.60;99.90;;;;;;5026791;28;20405;-76
2022/04/05 01:15:37;;;;;;;8.80;6.20;;;6.50;99.90;;;;;;5027135;28;20439;-76
2022/04/05 01:18:03;;;;;;;9.27;7.57;;;6.60;99.90;;;;;;5009653;28;20284;-76
2022/04/05 01:20:29;;;;;;;10.30;7.77;;;6.90;99.90;;;;;;5034729;28;20179;-75
2022/04/05 01:22:55;;;;;;;11.37;7.07;;;6.90;99.90;;;;;;5046343;28;20416;-75
2022/04/05 01:25:21;;;;;;;10.53;6.70;;;7.10;99.90;;;;;;5045974;28;20576;-77
2022/04/05 01:27:47;;;;;;;11.50;6.57;;;7.00;99.90;;;;;;5022073;28;20612;-75
2022/04/05 01:30:14;;;;;;;11.87;5.60;;;6.80;99.90;;;;;;5026355;28;20401;-75
2022/04/05 01:32:40;;;;;;;9.30;7.00;;;6.60;99.90;;;;;;5008767;28;20444;-75
2022/04/05 01:35:06;;;;;;;10.47;7.57;;;6.50;99.90;;;;;;5027102;28;20459;-75
2022/04/05 01:37:32;;;;;;;9.37;7.20;;;6.60;99.90;;;;;;5009617;28;20575;-76
2022/04/05 01:39:59;;;;;;;9.93;6.87;;;6.80;99.90;;;;;;5027056;28;20415;-74
2022/04/05 01:42:25;;;;;;;8.77;6.80;;;6.70;99.90;;;;;;5026512;28;20492;-76
2022/04/05 01:44:50;;;;;;;8.80;6.50;;;6.70;99.90;;;;;;5009576;28;20941;-75
2022/04/05 01:47:18;;;;;;;11.53;7.97;;;6.90;99.90;;;;;;5026565;28;20181;-76
2022/04/05 01:49:46;;;;;;;10.40;7.63;;;7.00;99.90;;;;;;5017255;28;20193;-76
2022/04/05 01:52:12;;;;;;;8.87;7.33;;;7.10;99.90;;;;;;5039867;28;20440;-76
2022/04/05 01:54:39;;;;;;;9.80;6.50;;;7.20;99.90;;;;;;5047146;28;20522;-75
2022/04/05 01:57:05;;;;;;;8.70;6.57;;;7.30;99.90;;;;;;5038472;28;20174;-75
2022/04/05 01:59:33;;;;;;;9.83;6.60;;;7.40;99.90;;;;;;5027004;28;20590;-75
2022/04/05 02:01:58;;;;;;;10.00;7.03;;;7.40;99.90;;;;;;5008323;28;20498;-76
2022/04/05 02:04:24;;;;;;;8.23;6.60;;;7.10;99.90;;;;;;5026974;28;20460;-76
2022/04/05 02:06:50;;;;;;;10.53;7.43;;;6.90;99.90;;;;;;5026680;28;20241;-75
2022/04/05 02:09:16;;;;;;;11.60;8.17;;;6.90;99.90;;;;;;5009355;28;20173;-75
2022/04/05 02:11:44;;;;;;;10.93;7.37;;;6.60;99.90;;;;;;5007735;28;20448;-76
2022/04/05 02:14:11;;;;;;;9.20;7.00;;;6.40;99.90;;;;;;5026171;28;20466;-76
2022/04/05 02:16:36;;;;;;;11.33;7.70;;;6.30;99.90;;;;;;5008077;28;20408;-76
2022/04/05 02:19:02;;;;;;;12.10;6.63;;;6.80;99.90;;;;;;5030619;28;20427;-76
2022/04/05 02:21:28;;;;;;;10.40;7.27;;;6.30;99.90;;;;;;5019932;28;20176;-76
2022/04/05 02:23:53;;;;;;;10.30;7.23;;;6.30;99.90;;;;;;5046992;28;20612;-76
2022/04/05 02:26:19;;;;;;;15.47;8.63;;;6.30;99.90;;;;;;5031626;28;20200;-75
2022/04/05 02:28:44;;;;;;;10.27;6.90;;;6.30;99.90;;;;;;5050616;28;20220;-74
2022/04/05 02:31:10;;;;;;;9.47;7.40;;;6.40;99.90;;;;;;5049484;28;20230;-75
2022/04/05 02:33:36;;;;;;;10.47;7.07;;;6.50;99.90;;;;;;5050078;28;20204;-75
2022/04/05 02:36:03;;;;;;;10.00;7.40;;;6.80;99.90;;;;;;5050156;28;20193;-72
2022/04/05 02:38:29;;;;;;;9.63;6.67;;;7.30;99.90;;;;;;5049453;28;20201;-75
2022/04/05 02:40:57;;;;;;;7.97;6.47;;;7.20;99.90;;;;;;5031220;28;20451;-74
2022/04/05 02:43:23;;;;;;;11.10;7.07;;;7.40;99.90;;;;;;5032399;28;20445;-74
2022/04/05 02:45:49;;;;;;;13.73;7.20;;;7.20;99.90;;;;;;5029322;28;21024;-75
2022/04/05 02:48:14;;;;;;;7.23;5.87;;;7.20;99.90;;;;;;5029938;28;20421;-75
2022/04/05 02:50:40;;;;;;;8.20;6.60;;;7.30;99.90;;;;;;5039054;28;20499;-74
2022/04/05 02:53:05;;;;;;;8.60;6.43;;;7.30;99.90;;;;;;5049657;28;20173;-74
2022/04/05 02:55:31;;;;;;;9.40;6.30;;;7.50;99.90;;;;;;5049869;28;20261;-73
2022/04/05 02:57:57;;;;;;;9.60;5.70;;;7.50;99.90;;;;;;5047774;28;20287;-74
2022/04/05 03:00:22;;;;;;;9.13;6.03;;;7.40;99.90;;;;;;5029631;28;20640;-74
2022/04/05 03:02:48;;;;;;;9.57;6.93;;;7.40;99.90;;;;;;5029715;28;20189;-74
2022/04/05 03:05:13;;;;;;;8.90;6.80;;;7.60;99.90;;;;;;5029622;28;20581;-74
2022/04/05 03:07:40;;;;;;;11.40;7.67;;;7.60;99.90;;;;;;5029997;28;20170;-74
2022/04/05 03:10:08;;;;;;;8.80;6.63;;;7.90;99.90;;;;;;5029607;28;20272;-74
2022/04/05 03:12:35;;;;;;;9.23;6.70;;;7.50;99.90;;;;;;5028990;28;20404;-73
2022/04/05 03:15:02;;;;;;;9.67;6.43;;;7.50;99.90;;;;;;5029397;28;20459;-74
2022/04/05 03:17:27;;;;;;;7.97;5.83;;;7.50;99.90;;;;;;5029619;28;20713;-73
2022/04/05 03:19:53;;;;;;;10.70;6.50;;;7.90;99.90;;;;;;5038002;28;20411;-74
2022/04/05 03:22:18;;;;;;;9.20;6.27;;;7.40;99.90;;;;;;5043419;28;20280;-74
2022/04/05 03:24:44;;;;;;;8.30;6.23;;;7.40;99.90;;;;;;5049535;28;20213;-74
2022/04/05 03:27:10;;;;;;;10.27;6.80;;;7.70;99.90;;;;;;5029701;28;20177;-75
2022/04/05 03:29:35;;;;;;;10.77;7.03;;;7.40;99.90;;;;;;5029261;28;20178;-74
2022/04/05 03:32:02;;;;;;;12.77;6.27;;;7.30;99.90;;;;;;5028472;28;20644;-75
2022/04/05 03:34:28;;;;;;;10.70;7.30;;;7.20;99.90;;;;;;5029684;28;20236;-75
2022/04/05 03:36:54;;;;;;;9.00;6.70;;;7.20;99.90;;;;;;5027913;28;20409;-74
2022/04/05 03:39:20;;;;;;;11.90;7.00;;;7.20;99.90;;;;;;5029666;28;20489;-75
2022/04/05 03:41:46;;;;;;;7.53;5.30;;;6.80;99.90;;;;;;5028578;28;20507;-75
2022/04/05 03:44:11;;;;;;;11.73;7.80;;;6.60;99.90;;;;;;5029301;28;20274;-75
2022/04/05 03:46:37;;;;;;;15.20;7.73;;;7.10;99.90;;;;;;5028880;28;20664;-75
2022/04/05 03:49:03;;;;;;;10.77;7.17;;;6.30;99.90;;;;;;5033455;28;20240;-75
2022/04/05 03:51:29;;;;;;;10.37;7.70;;;6.40;99.90;;;;;;5040215;28;20177;-75
2022/04/05 03:53:55;;;;;;;11.40;6.77;;;6.60;99.90;;;;;;5030236;28;20770;-75
2022/04/05 03:56:22;;;;;;;11.00;7.03;;;6.30;99.90;;;;;;5038913;28;20408;-76
2022/04/05 03:58:48;;;;;;;9.80;5.90;;;6.40;99.90;;;;;;5026685;28;20416;-75
2022/04/05 04:01:14;;;;;;;14.80;7.37;;;6.90;99.90;;;;;;5027828;28;20899;-75
2022/04/05 04:03:39;;;;;;;11.77;7.90;;;6.50;99.90;;;;;;5029008;28;20405;-77
2022/04/05 04:06:05;;;;;;;10.03;6.87;;;6.60;99.90;;;;;;5010724;28;20210;-75
2022/04/05 04:08:31;;;;;;;10.00;7.53;;;6.60;99.90;;;;;;5029183;28;20552;-75
2022/04/05 04:10:56;;;;;;;7.90;6.00;;;6.50;99.90;;;;;;5028369;28;20593;-74
2022/04/05 04:13:22;;;;;;;10.77;6.97;;;6.50;99.90;;;;;;5028033;28;20185;-75
2022/04/05 04:15:47;;;;;;;11.50;6.80;;;6.40;99.90;;;;;;5028495;28;20611;-75
2022/04/05 04:18:13;;;;;;;16.10;7.60;;;6.60;99.90;;;;;;5028322;28;20182;-75
2022/04/05 04:20:39;;;;;;;11.27;7.17;;;6.30;99.90;;;;;;5019318;28;20184;-74
2022/04/05 04:23:05;;;;;;;7.67;5.93;;;6.60;99.90;;;;;;5048106;28;20568;-75
2022/04/05 04:25:31;;;;;;;10.57;7.23;;;6.30;99.90;;;;;;5047232;28;20447;-75
2022/04/05 04:27:57;;;;;;;11.80;7.97;;;6.40;99.90;;;;;;5029613;28;20550;-75
2022/04/05 04:30:23;;;;;;;12.30;7.17;;;6.80;99.90;;;;;;5048029;28;20433;-75
2022/04/05 04:32:48;;;;;;;8.50;6.43;;;6.40;99.90;;;;;;5047938;28;20403;-76
2022/04/05 04:35:14;;;;;;;13.70;8.33;;;6.50;99.90;;;;;;5047409;28;20208;-75
2022/04/05 04:37:40;;;;;;;11.40;7.20;;;6.50;99.90;;;;;;5048084;28;20169;-76
2022/04/05 04:40:06;;;;;;;12.30;8.73;;;6.30;99.90;;;;;;5047914;28;20281;-75
2022/04/05 04:42:33;;;;;;;9.53;5.70;;;6.00;99.90;;;;;;5038247;28;20265;-75
2022/04/05 04:44:59;;;;;;;23.53;6.70;;;6.00;99.90;;;;;;5027461;28;20459;-75
2022/04/05 04:47:24;;;;;;;10.47;8.07;;;6.50;99.90;;;;;;5027582;28;20478;-75
2022/04/05 04:49:50;;;;;;;9.70;6.93;;;6.30;99.90;;;;;;5030396;28;20793;-76
2022/04/05 04:52:16;;;;;;;15.13;8.20;;;6.40;99.90;;;;;;5027138;28;20182;-75
2022/04/05 04:54:41;;;;;;;11.17;7.83;;;6.00;99.90;;;;;;5027942;28;20189;-75
2022/04/05 04:57:07;;;;;;;12.40;7.63;;;6.10;99.90;;;;;;5026230;28;20209;-76
2022/04/05 04:59:32;;;;;;;9.00;6.90;;;6.10;99.90;;;;;;5027456;28;20192;-75
2022/04/05 05:01:58;;;;;;;11.00;7.70;;;6.10;99.90;;;;;;5027103;28;20220;-76
2022/04/05 05:04:23;;;;;;;12.40;7.00;;;6.10;99.90;;;;;;5027316;28;20410;-75
2022/04/05 05:06:51;;;;;;;11.43;9.33;;;6.40;99.90;;;;;;5027675;28;20174;-76
2022/04/05 05:09:16;;;;;;;13.73;8.53;;;6.40;99.90;;;;;;5027672;28;20170;-76
2022/04/05 05:11:44;;;;;;;12.10;8.40;;;6.00;99.90;;;;;;5025841;28;20424;-76
2022/04/05 05:14:09;;;;;;;10.87;8.00;;;6.10;99.90;;;;;;5027044;28;20541;-76
2022/04/05 05:16:35;;;;;;;15.90;9.40;;;6.40;99.90;;;;;;5027070;28;20495;-74
2022/04/05 05:19:00;;;;;;;14.30;9.70;;;5.90;99.90;;;;;;5030321;28;20198;-76
2022/04/05 05:21:26;;;;;;;9.80;7.43;;;6.00;99.90;;;;;;5037665;28;20473;-76
2022/04/05 05:23:51;;;;;;;11.20;7.93;;;6.00;99.90;;;;;;5047486;28;20642;-75
2022/04/05 05:26:17;;;;;;;10.87;7.53;;;6.50;99.90;;;;;;5036946;28;20214;-76
2022/04/05 05:28:43;;;;;;;11.77;7.93;;;6.30;99.90;;;;;;5024305;28;20727;-77
2022/04/05 05:31:08;;;;;;;7.60;5.70;;;6.00;99.90;;;;;;5009217;28;20243;-75
2022/04/05 05:33:34;;;;;;;16.63;11.20;;;6.20;99.90;;;;;;5010034;28;20200;-76
2022/04/05 05:35:59;;;;;;;16.57;10.30;;;5.90;99.90;;;;;;5027570;28;20197;-74
2022/04/05 05:38:25;;;;;;;10.77;8.10;;;5.80;99.90;;;;;;5008592;28;20174;-76
2022/04/05 05:40:51;;;;;;;12.93;7.30;;;6.10;99.90;;;;;;5008693;28;20178;-76
2022/04/05 05:43:17;;;;;;;17.13;10.50;;;5.70;99.90;;;;;;5027108;28;20417;-76
2022/04/05 05:45:43;;;;;;;14.80;9.87;;;5.70;99.90;;;;;;5027316;28;20467;-76
2022/04/05 05:48:08;;;;;;;13.37;9.90;;;5.90;99.90;;;;;;5026604;28;20173;-76
2022/04/05 05:50:35;;;;;;;13.30;8.80;;;5.80;99.90;;;;;;5035762;28;20176;-76
2022/04/05 05:53:01;;;;;;;13.47;8.77;;;6.20;99.90;;;;;;5007627;28;20174;-76
2022/04/05 05:55:27;;;;;;;9.00;6.10;;;5.80;99.90;;;;;;5007394;28;20429;-76
2022/04/05 05:57:52;;;;;;;11.23;7.80;;;5.80;99.90;;;;;;5021319;28;20192;-75
2022/04/05 06:00:22;;;;;;;14.43;7.63;;;6.20;99.90;;;;;;5029042;28;20278;-76
2022/04/05 06:02:55;;;;;;;13.33;8.50;;;6.00;99.90;;;;;;5031112;28;20717;-76
2022/04/05 06:05:21;;;;;;;11.07;6.43;;;5.90;99.90;;;;;;5030969;28;20832;-76
2022/04/05 06:07:47;;;;;;;14.80;8.00;;;6.30;99.90;;;;;;5030845;28;20400;-76
2022/04/05 06:10:13;;;;;;;12.50;8.67;;;5.90;99.90;;;;;;5030598;28;20234;-76
2022/04/05 06:12:44;;;;;;;14.70;9.10;;;6.20;99.90;;;;;;5012502;28;20170;-76
2022/04/05 06:15:12;;;;;;;9.00;6.80;;;5.90;99.90;;;;;;5012437;28;21009;-76
2022/04/05 06:17:42;;;;;;;14.80;8.97;;;6.10;99.90;;;;;;5012487;28;20491;-75
2022/04/05 06:20:09;;;;;;;11.40;8.60;;;5.80;99.90;;;;;;5039544;28;20907;-75
2022/04/05 06:22:44;;;;;;;14.10;9.70;;;5.90;99.90;;;;;;5047309;28;20510;-75
2022/04/05 06:25:11;;;;;;;13.40;8.70;;;5.90;99.90;;;;;;5031501;28;20916;-76
2022/04/05 06:27:38;;;;;;;17.17;9.70;;;5.90;99.90;;;;;;5050498;28;20442;-75
2022/04/05 06:30:05;;;;;;;13.23;9.63;;;5.90;99.90;;;;;;5032085;28;20420;-74
2022/04/05 06:32:31;;;;;;;14.00;9.13;;;5.80;99.90;;;;;;5049168;28;20264;-75
2022/04/05 06:34:56;;;;;;;17.43;10.17;;;5.90;99.90;;;;;;5050506;28;20518;-76
2022/04/05 06:37:22;;;;;;;12.63;8.90;;;5.80;99.90;;;;;;5032213;28;20185;-75
2022/04/05 06:39:48;;;;;;;16.63;10.33;;;5.80;99.90;;;;;;5050225;28;20293;-75
2022/04/05 06:42:14;;;;;;;15.30;10.40;;;5.80;99.90;;;;;;5041022;28;20599;-75
2022/04/05 06:44:39;;;;;;;12.27;9.10;;;5.80;99.90;;;;;;5030093;28;20547;-75
2022/04/05 06:47:06;;;;;;;14.30;8.60;;;5.80;99.90;;;;;;5030426;28;20180;-75
2022/04/05 06:49:32;;;;;;;13.90;10.43;;;6.00;99.90;;;;;;5038725;28;20177;-75
2022/04/05 06:51:58;;;;;;;15.40;9.23;;;5.80;99.90;;;;;;5041613;28;20486;-75
2022/04/05 06:54:23;;;;;;;15.10;9.87;;;6.00;99.90;;;;;;5050158;28;20290;-74
2022/04/05 06:56:49;;;;;;;10.83;7.73;;;6.40;99.90;;;;;;5048932;28;20214;-75
2022/04/05 06:59:14;;;;;;;9.20;4.73;;;6.00;99.90;;;;;;5049818;28;20550;-75
2022/04/05 07:01:40;;;;;;;11.83;9.07;;;6.10;99.90;;;;;;5048609;28;20173;-75
2022/04/05 07:04:06;;;;;;;13.10;9.37;;;6.30;99.90;;;;;;5049836;28;20188;-75
2022/04/05 07:06:31;;;;;;;16.00;9.77;;;6.10;99.90;;;;;;5049745;28;20205;-74
2022/04/05 07:08:57;;;;;;;14.17;9.63;;;6.40;99.90;;;;;;5050381;28;20508;-75
2022/04/05 07:11:22;;;;;;;17.60;9.50;;;6.20;99.90;;;;;;5049181;28;20492;-75
2022/04/05 07:13:48;;;;;;;16.20;8.97;;;5.90;99.90;;;;;;5049547;28;20193;-76
2022/04/05 07:16:14;;;;;;;13.77;9.10;;;6.10;99.90;;;;;;5049557;28;20203;-76
2022/04/05 07:18:39;;;;;;;12.90;9.43;;;5.90;99.90;;;;;;5043216;28;20188;-76
2022/04/05 07:21:04;;;;;;;18.83;10.43;;;6.00;99.90;;;;;;5041099;28;20196;-75
2022/04/05 07:23:30;;;;;;;15.00;9.00;;;6.20;99.90;;;;;;5049967;28;20276;-76
2022/04/05 07:25:55;;;;;;;15.40;6.70;;;5.80;99.90;;;;;;5046239;28;20239;-76
2022/04/05 07:28:21;;;;;;;10.80;8.20;;;5.80;99.90;;;;;;5023979;28;20637;-75
2022/04/05 07:30:46;;;;;;;14.90;9.50;;;5.90;99.90;;;;;;5029820;28;20174;-75
2022/04/05 07:33:12;;;;;;;14.20;9.40;;;6.20;99.90;;;;;;5029537;28;20597;-76
2022/04/05 07:35:37;;;;;;;15.97;10.60;;;6.40;99.90;;;;;;5011764;28;20202;-75
2022/04/05 07:38:03;;;;;;;13.67;8.67;;;6.00;99.90;;;;;;5029591;28;20183;-76
2022/04/05 07:40:47;;;;;;;14.87;10.03;;;6.00;99.90;;;;;;5029003;28;20587;-75
2022/04/05 07:43:14;;;;;;;14.77;9.43;;;6.00;99.90;;;;;;5029072;28;20174;-75
2022/04/05 07:45:40;;;;;;;10.27;6.87;;;6.20;99.90;;;;;;5029225;28;20468;-76
2022/04/05 07:48:05;;;;;;;13.23;9.00;;;6.00;99.90;;;;;;5029177;28;20797;-75
2022/04/05 07:50:31;;;;;;;14.23;9.57;;;6.10;99.90;;;;;;5037129;28;20295;-75
2022/04/05 07:52:56;;;;;;;15.27;9.67;;;6.60;99.90;;;;;;5048827;28;20655;-75
2022/04/05 07:55:22;;;;;;;18.07;9.80;;;6.10;99.90;;;;;;5049039;28;20242;-75
2022/04/05 07:57:49;;;;;;;18.77;10.20;;;6.30;99.90;;;;;;5048777;28;20523;-75
2022/04/05 08:00:15;;;;;;;18.80;12.30;;;6.60;99.90;;;;;;5048626;28;20187;-75
2022/04/05 08:02:41;;;;;;;11.17;8.90;;;6.20;99.90;;;;;;5048611;28;20595;-75
2022/04/05 08:05:07;;;;;;;16.13;9.77;;;6.70;99.90;;;;;;5037264;28;20951;-75
2022/04/05 08:07:32;;;;;;;15.70;9.93;;;6.30;99.90;;;;;;5028256;28;20524;-75
2022/04/05 08:09:58;;;;;;;13.80;9.20;;;6.40;99.90;;;;;;5028907;28;20487;-73
2022/04/05 08:12:24;;;;;;;10.50;7.20;;;6.20;99.90;;;;;;5010309;28;20553;-75
2022/04/05 08:14:49;;;;;;;11.40;8.40;;;6.30;99.90;;;;;;5029469;28;20214;-75
2022/04/05 08:17:15;;;;;;;13.60;8.67;;;6.30;99.90;;;;;;5028009;28;20370;-75
2022/04/05 08:19:40;;;;;;;11.80;9.03;;;6.20;99.90;;;;;;5037079;28;20318;-75
2022/04/05 08:22:08;;;;;;;12.67;8.93;;;6.50;99.90;;;;;;5022147;28;20310;-75
2022/04/05 08:24:34;;;;;;;13.13;9.17;;;6.20;99.90;;;;;;5048593;28;20203;-74
2022/04/05 08:27:00;;;;;;;12.90;9.77;;;6.70;99.90;;;;;;5047776;28;20399;-75
2022/04/05 08:29:26;;;;;;;16.60;9.97;;;6.30;99.90;;;;;;5048587;28;20487;-74
2022/04/05 08:31:51;;;;;;;17.40;11.70;;;6.80;99.90;;;;;;5046548;28;20494;-74
2022/04/05 08:34:18;;;;;;;13.73;9.70;;;6.30;99.90;;;;;;5048725;28;20201;-75
2022/04/05 08:36:44;;;;;;;15.30;10.13;;;6.60;99.90;;;;;;5048140;28;20211;-75
2022/04/05 08:39:10;;;;;;;17.00;11.17;;;6.70;99.90;;;;;;5048670;28;20408;-74
2022/04/05 08:41:37;;;;;;;12.57;8.30;;;6.40;99.90;;;;;;5045384;28;20768;-73
2022/04/05 08:44:03;;;;;;;15.53;9.00;;;6.40;99.90;;;;;;5028270;28;20173;-74
2022/04/05 08:46:34;;;;;;;13.33;8.73;;;6.40;99.90;;;;;;5027879;28;20448;-75
2022/04/05 08:49:00;;;;;;;13.03;8.57;;;6.70;99.90;;;;;;5032075;28;20403;-75
2022/04/05 08:51:25;;;;;;;11.50;8.50;;;6.90;99.90;;;;;;5039632;28;20440;-75
2022/04/05 08:53:51;;;;;;;13.57;8.23;;;8.00;99.90;;;;;;5048326;28;20403;-75
2022/04/05 08:56:16;;;;;;;11.00;8.20;;;6.40;99.90;;;;;;5047859;28;20208;-76
2022/04/05 08:58:42;;;;;;;11.60;8.60;;;6.60;99.90;;;;;;5030025;28;20647;-75
2022/04/05 09:01:09;;;;;;;16.67;9.97;;;6.80;99.90;;;;;;5047578;28;20178;-74
2022/04/05 09:03:35;;;;;;;11.77;8.73;;;6.40;99.90;;;;;;5048213;28;20176;-73
2022/04/05 09:06:28;;;;;;;14.33;9.60;;;6.60;99.90;;;;;;5048176;28;20840;-72
2022/04/05 09:08:58;;;;;;;13.97;8.90;;;6.40;99.90;;;;;;5029537;28;20474;-74
2022/04/05 09:11:27;;;;;;;11.90;8.87;;;6.40;99.90;;;;;;5047117;28;20429;-74
2022/04/05 09:13:58;;;;;;;12.60;8.53;;;6.40;99.90;;;;;;5029456;28;20828;-74
2022/04/05 09:16:32;;;;;;;12.23;9.37;;;6.40;99.90;;;;;;5029273;28;20723;-74
2022/04/05 09:19:00;;;;;;;14.73;8.63;;;6.60;99.90;;;;;;5041277;28;20415;-74
2022/04/05 09:21:25;;;;;;;12.20;8.67;;;6.50;99.90;;;;;;5038630;28;20514;-74
2022/04/05 09:23:52;;;;;;;13.50;8.90;;;6.50;99.90;;;;;;5047653;28;20923;-74
2022/04/05 09:26:19;;;;;;;10.90;8.00;;;6.50;99.90;;;;;;5038233;28;20253;-74
2022/04/05 09:28:49;;;;;;;13.20;8.67;;;6.50;99.90;;;;;;5025193;28;20409;-73
2022/04/05 09:31:18;;;;;;;11.97;7.13;;;6.50;99.90;;;;;;5026998;28;20416;-74
2022/04/05 09:34:03;;;;;;;14.43;9.70;;;6.50;99.90;;;;;;5028642;28;20723;-74
2022/04/05 09:36:34;;;;;;;16.50;8.80;;;6.60;99.90;;;;;;5031717;28;20763;-74
2022/04/05 09:39:10;;;;;;;10.47;7.53;;;7.20;99.90;;;;;;5014223;28;20493;-74
2022/04/05 09:41:35;;;;;;;13.90;8.27;;;6.60;99.90;;;;;;5030775;28;20780;-74
2022/04/05 09:44:02;;;;;;;9.40;7.73;;;6.70;99.90;;;;;;5032082;28;20405;-74
2022/04/05 09:46:28;;;;;;;10.00;7.77;;;6.60;99.90;;;;;;5031244;28;20211;-74
2022/04/05 09:49:12;;;;;;;13.60;8.70;;;7.00;99.90;;;;;;5034354;28;20412;-73
2022/04/05 09:51:45;;;;;;;13.27;8.57;;;6.80;99.90;;;;;;5042867;28;20761;-73
2022/04/05 09:54:28;;;;;;;11.43;8.40;;;7.00;99.90;;;;;;5051739;28;20514;-74
2022/04/05 09:57:03;;;;;;;10.50;7.90;;;6.80;99.90;;;;;;5050629;28;20898;-74
2022/04/05 09:59:49;;;;;;;15.63;8.53;;;6.90;99.90;;;;;;5051624;28;20415;-74
2022/04/05 10:02:16;;;;;;;14.87;8.37;;;7.00;99.90;;;;;;5050441;28;20759;-74
2022/04/05 10:05:06;;;;;;;11.60;8.20;;;7.00;99.90;;;;;;5026475;28;20603;-74
2022/04/05 10:07:33;;;;;;;11.17;8.10;;;6.90;99.90;;;;;;5031033;28;20402;-74
2022/04/05 10:10:00;;;;;;;14.50;8.37;;;7.20;99.90;;;;;;5013159;28;20412;-73
2022/04/05 10:12:27;;;;;;;9.90;7.70;;;6.90;99.90;;;;;;5030807;28;20878;-74
2022/04/05 10:14:54;;;;;;;14.20;8.23;;;7.10;99.90;;;;;;5031303;28;20452;-74
2022/04/05 10:17:22;;;;;;;12.17;8.23;;;7.00;99.90;;;;;;5032520;28;20466;-73
2022/04/05 10:19:50;;;;;;;10.07;7.63;;;7.20;99.90;;;;;;5039461;28;20496;-73
2022/04/05 10:22:17;;;;;;;10.67;7.70;;;7.30;99.90;;;;;;5044342;28;20494;-72
2022/04/05 10:24:44;;;;;;;10.80;7.70;;;7.10;99.90;;;;;;5050375;28;20458;-72
2022/04/05 10:27:11;;;;;;;11.07;8.20;;;7.20;99.90;;;;;;5050280;28;20402;-73
2022/04/05 10:29:37;;;;;;;6.73;5.00;;;7.50;99.90;;;;;;5033382;28;20447;-73
2022/04/05 10:32:19;;;;;;;10.77;8.00;;;7.30;99.90;;;;;;5050147;28;20490;-73
2022/04/05 10:35:01;;;;;;;10.80;6.93;;;7.70;99.90;;;;;;5050933;28;20959;-72
2022/04/05 10:37:35;;;;;;;10.13;7.90;;;7.50;99.90;;;;;;5032342;28;20431;-74
2022/04/05 10:40:01;;;;;;;9.40;7.40;;;7.70;99.90;;;;;;5031816;28;20593;-74
2022/04/05 10:42:53;;;;;;;10.43;5.90;;;7.80;99.90;;;;;;5029616;28;20987;-74
2022/04/05 10:45:26;;;;;;;14.07;8.10;;;7.80;99.90;;;;;;5021635;28;20214;-74
2022/04/05 10:48:18;;;;;;;10.63;7.30;;;7.90;99.90;;;;;;5030470;28;20405;-74
2022/04/05 10:50:46;;;;;;;12.80;8.07;;;8.00;99.90;;;;;;5040224;28;20427;-74
2022/04/05 10:53:18;;;;;;;8.60;5.20;;;8.10;99.90;;;;;;5031864;28;20976;-74
2022/04/05 10:56:02;;;;;;;14.43;7.97;;;8.00;99.90;;;;;;5049697;28;20960;-74
2022/04/05 10:58:28;;;;;;;9.63;7.40;;;8.00;99.90;;;;;;5050296;28;20621;-74
2022/04/05 11:01:17;;;;;;;9.60;7.13;;;8.00;99.90;;;;;;5049800;28;20458;-74
2022/04/05 11:04:16;;;;;;;10.20;6.93;;;8.10;99.90;;;;;;5050727;28;20465;-74
2022/04/05 11:07:05;;;;;;;12.67;7.50;;;8.20;99.90;;;;;;5050002;28;20459;-73
2022/04/05 11:09:43;;;;;;;12.80;8.20;;;8.30;99.90;;;;;;5050657;28;20499;-75
2022/04/05 11:12:11;;;;;;;10.23;7.80;;;8.40;99.90;;;;;;5049083;28;20529;-74
2022/04/05 11:14:51;;;;;;;10.73;7.80;;;8.60;99.90;;;;;;5050296;28;20978;-74
2022/04/05 11:17:19;;;;;;;12.80;7.80;;;8.70;99.90;;;;;;5049900;28;20738;-74
2022/04/05 11:19:47;;;;;;;9.70;7.20;;;8.80;99.90;;;;;;5042050;28;20434;-74
2022/04/05 11:22:21;;;;;;;9.67;7.03;;;8.70;99.90;;;;;;5043237;28;20518;-74
2022/04/05 11:24:55;;;;;;;8.63;7.57;;;8.90;99.90;;;;;;5031828;28;20531;-75
2022/04/05 11:27:29;;;;;;;12.90;7.83;;;9.00;99.90;;;;;;5029158;28;20782;-74
2022/04/05 11:30:20;;;;;;;17.47;8.40;;;9.00;99.90;;;;;;5029432;28;20854;-74
2022/04/05 11:33:18;;;;;;;9.80;8.00;;;9.00;99.90;;;;;;5011723;28;20444;-75
2022/04/05 11:35:57;;;;;;;10.00;7.10;;;8.90;99.90;;;;;;5030111;28;20444;-74
2022/04/05 11:38:25;;;;;;;11.03;8.20;;;9.00;99.90;;;;;;5012085;28;20418;-74
2022/04/05 11:40:52;;;;;;;10.03;7.80;;;9.10;99.90;;;;;;5011968;28;20619;-74
2022/04/05 11:43:32;;;;;;;13.57;7.33;;;9.10;99.90;;;;;;5029696;28;20523;-74
2022/04/05 11:46:09;;;;;;;9.87;8.03;;;9.10;99.90;;;;;;5029584;28;20455;-74
2022/04/05 11:48:39;;;;;;;12.30;7.57;;;9.30;99.90;;;;;;5029845;28;20412;-75
2022/04/05 11:51:09;;;;;;;12.00;7.97;;;9.40;99.90;;;;;;5041105;28;20425;-74
2022/04/05 11:53:34;;;;;;;15.63;8.13;;;9.40;99.90;;;;;;5049899;28;20408;-74
2022/04/05 11:56:09;;;;;;;11.90;8.07;;;9.40;99.90;;;;;;5048585;28;20416;-73
2022/04/05 11:58:36;;;;;;;14.20;9.00;;;9.60;99.90;;;;;;5047539;28;20606;-75
2022/04/05 12:01:03;;;;;;;12.30;8.00;;;9.70;99.90;;;;;;5030856;28;20475;-75
2022/04/05 12:03:30;;;;;;;8.67;7.47;;;9.90;99.90;;;;;;5049256;28;20415;-74
2022/04/05 12:05:56;;;;;;;12.47;8.40;;;10.10;99.90;;;;;;5032331;28;20452;-75
2022/04/05 12:08:22;;;;;;;11.23;8.23;;;10.30;99.90;;;;;;5029040;28;20738;-74
2022/04/05 12:10:47;;;;;;;10.33;8.30;;;10.40;99.90;;;;;;5028875;28;20597;-75
2022/04/05 12:13:13;;;;;;;11.17;8.23;;;10.40;99.90;;;;;;5028578;28;20257;-74
2022/04/05 12:15:38;;;;;;;10.60;8.50;;;10.30;99.90;;;;;;5028873;28;20217;-74
2022/04/05 12:18:20;;;;;;;10.17;7.70;;;10.30;99.90;;;;;;5029070;28;20166;-75
2022/04/05 12:21:06;;;;;;;10.63;8.73;;;10.10;99.90;;;;;;5021129;28;20620;-74
2022/04/05 12:23:38;;;;;;;18.53;7.97;;;10.20;99.90;;;;;;5030991;28;20411;-74
2022/04/05 12:26:05;;;;;;;12.80;10.90;;;10.40;99.90;;;;;;5029323;28;20517;-74
2022/04/05 12:28:31;;;;;;;11.70;9.23;;;10.50;99.90;;;;;;5048061;28;20727;-74
2022/04/05 12:31:28;;;;;;;10.70;8.53;;;10.60;99.90;;;;;;5048573;28;20415;-75
2022/04/05 12:33:59;;;;;;;9.10;7.50;;;10.80;99.90;;;;;;5034345;28;20448;-74
2022/04/05 12:36:41;;;;;;;11.97;7.97;;;10.70;99.90;;;;;;5028389;28;20960;-75
2022/04/05 12:39:17;;;;;;;9.40;7.67;;;10.60;99.90;;;;;;5029401;28;20621;-75
2022/04/05 12:41:44;;;;;;;15.60;8.10;;;10.50;99.90;;;;;;5026273;28;20491;-75
2022/04/05 12:44:12;;;;;;;11.43;8.07;;;10.40;99.90;;;;;;5010091;28;20524;-74
2022/04/05 12:46:41;;;;;;;12.97;7.90;;;10.40;99.90;;;;;;5027747;28;20770;-74
2022/04/05 12:49:19;;;;;;;8.07;7.20;;;10.60;99.90;;;;;;5031105;28;20404;-75
2022/04/05 12:51:46;;;;;;;11.70;9.00;;;10.80;99.90;;;;;;5018853;28;20416;-75
2022/04/05 12:54:31;;;;;;;13.30;7.40;;;11.10;99.90;;;;;;5028386;28;20424;-75